createdAt,value
2022-09-22T00:01:29.043Z,10.70
2022-09-22T00:04:00.341Z,10.69
2022-09-22T00:06:36.980Z,10.69
2022-09-22T00:09:06.387Z,10.68
2022-09-22T00:11:45.951Z,10.66
2022-09-22T00:14:15.610Z,10.67
2022-09-22T00:16:46.729Z,10.65
2022-09-22T00:19:21.375Z,10.65
2022-09-22T00:21:48.846Z,10.64
2022-09-22T00:24:17.360Z,10.64
2022-09-22T00:26:44.698Z,10.64
2022-09-22T00:29:12.647Z,10.63
2022-09-22T00:31:41.930Z,10.61
2022-09-22T00:34:17.122Z,10.59
2022-09-22T00:36:44.779Z,10.60
2022-09-22T00:39:13.510Z,10.58
2022-09-22T00:41:44.730Z,10.58
2022-09-22T00:44:26.783Z,10.54
2022-09-22T00:47:02.693Z,10.53
2022-09-22T00:50:19.177Z,10.51
2022-09-22T00:52:58.787Z,10.50
2022-09-22T00:55:52.287Z,10.47
2022-09-22T00:58:23.678Z,10.48
2022-09-22T01:00:51.014Z,10.47
2022-09-22T01:03:26.252Z,10.47
2022-09-22T01:06:01.718Z,10.45
2022-09-22T01:08:31.423Z,10.46
2022-09-22T01:10:59.498Z,10.45
2022-09-22T01:13:39.295Z,10.44
2022-09-22T01:16:30.622Z,10.42
2022-09-22T01:19:22.941Z,10.41
2022-09-22T01:22:14.486Z,10.40
2022-09-22T01:25:23.638Z,10.41
2022-09-22T01:28:38.447Z,10.40
2022-09-22T01:31:41.851Z,10.40
2022-09-22T01:34:52.635Z,10.40
2022-09-22T01:37:36.528Z,10.40
2022-09-22T01:40:09.388Z,10.41
2022-09-22T01:43:42.783Z,10.40
2022-09-22T01:46:31.025Z,10.40
2022-09-22T01:49:03.150Z,10.39
2022-09-22T01:51:39.366Z,10.38
2022-09-22T01:54:24.796Z,10.38
2022-09-22T01:57:01.195Z,10.36
2022-09-22T01:59:31.730Z,10.36
2022-09-22T02:02:12.619Z,10.35
2022-09-22T02:04:49.178Z,10.34
2022-09-22T02:07:25.138Z,10.33
2022-09-22T02:09:53.126Z,10.32
2022-09-22T02:12:20.219Z,10.32
2022-09-22T02:14:47.451Z,10.32
2022-09-22T02:17:15.855Z,10.30
2022-09-22T02:19:42.979Z,10.30
2022-09-22T02:22:12.179Z,10.30
2022-09-22T02:24:44.166Z,10.29
2022-09-22T02:27:25.604Z,10.28
2022-09-22T02:30:08.247Z,10.26
2022-09-22T02:32:38.850Z,10.26
2022-09-22T02:35:07.531Z,10.25
2022-09-22T02:38:16.474Z,10.24
2022-09-22T02:41:18.487Z,10.22
2022-09-22T02:43:59.282Z,10.21
2022-09-22T02:46:40.567Z,10.20
2022-09-22T02:49:15.758Z,10.20
2022-09-22T02:51:43.437Z,10.20
2022-09-22T02:54:10.337Z,10.20
2022-09-22T02:56:37.320Z,10.18
2022-09-22T02:59:04.294Z,10.18
2022-09-22T03:01:31.265Z,10.19
2022-09-22T03:03:58.220Z,10.18
2022-09-22T03:06:25.178Z,10.17
2022-09-22T03:08:52.196Z,10.16
2022-09-22T03:11:19.143Z,10.15
2022-09-22T03:13:46.121Z,10.15
2022-09-22T03:16:13.318Z,10.13
2022-09-22T03:18:40.337Z,10.12
2022-09-22T03:21:07.813Z,10.11
2022-09-22T03:23:34.722Z,10.10
2022-09-22T03:26:01.699Z,10.09
2022-09-22T03:35:53.414Z,10.05
2022-09-22T03:38:20.325Z,10.04
2022-09-22T03:40:52.614Z,10.04
2022-09-22T03:43:20.474Z,10.05
2022-09-22T03:45:47.480Z,10.04
2022-09-22T03:48:14.565Z,10.04
2022-09-22T03:50:41.482Z,10.03
2022-09-22T03:53:08.420Z,10.01
2022-09-22T03:55:35.360Z,10.01
2022-09-22T03:58:03.719Z,9.99
2022-09-22T04:00:30.681Z,9.97
2022-09-22T04:02:58.559Z,9.96
2022-09-22T04:05:26.717Z,9.95
2022-09-22T04:07:53.755Z,9.93
2022-09-22T04:10:21.250Z,9.92
2022-09-22T04:12:48.481Z,9.91
2022-09-22T04:15:15.583Z,9.91
2022-09-22T04:17:42.496Z,9.89
2022-09-22T04:20:11.775Z,9.88
2022-09-22T04:22:39.248Z,9.85
2022-09-22T04:25:07.699Z,9.85
2022-09-22T04:27:34.595Z,9.83
2022-09-22T04:30:01.516Z,9.80
2022-09-22T04:32:28.465Z,9.78
2022-09-22T04:34:55.457Z,9.75
2022-09-22T04:37:22.354Z,9.73
2022-09-22T04:39:50.274Z,9.73
2022-09-22T04:42:17.197Z,9.69
2022-09-22T04:44:44.400Z,9.69
2022-09-22T04:47:11.335Z,9.67
2022-09-22T04:49:38.370Z,9.64
2022-09-22T04:52:05.421Z,9.63
2022-09-22T04:54:32.525Z,9.61
2022-09-22T04:56:59.486Z,9.59
2022-09-22T04:59:26.513Z,9.57
2022-09-22T05:01:53.549Z,9.54
2022-09-22T05:04:21.020Z,9.53
2022-09-22T05:06:47.989Z,9.51
2022-09-22T05:09:15.393Z,9.51
2022-09-22T05:11:42.314Z,9.49
2022-09-22T05:14:09.375Z,9.47
2022-09-22T05:16:36.876Z,9.46
2022-09-22T05:19:03.916Z,9.45
2022-09-22T05:21:31.008Z,9.44
2022-09-22T05:23:58.020Z,9.41
2022-09-22T05:26:25.290Z,9.40
2022-09-22T05:28:52.207Z,9.39
2022-09-22T05:31:19.697Z,9.37
2022-09-22T05:33:46.633Z,9.36
2022-09-22T05:36:13.625Z,9.36
2022-09-22T05:38:40.569Z,9.34
2022-09-22T05:41:07.876Z,9.33
2022-09-22T05:43:34.902Z,9.32
2022-09-22T05:46:01.910Z,9.32
2022-09-22T05:48:31.178Z,9.32
2022-09-22T05:50:58.877Z,9.32
2022-09-22T05:53:25.863Z,9.32
2022-09-22T05:55:52.869Z,9.31
2022-09-22T05:58:20.449Z,9.32
2022-09-22T06:00:47.596Z,9.32
2022-09-22T06:03:14.665Z,9.31
2022-09-22T06:05:41.866Z,9.32
2022-09-22T06:08:08.988Z,9.31
2022-09-22T06:10:38.630Z,9.31
2022-09-22T06:13:08.729Z,9.32
2022-09-22T06:15:36.416Z,9.31
2022-09-22T06:18:09.120Z,9.32
2022-09-22T06:20:38.886Z,9.32
2022-09-22T06:23:06.263Z,9.33
2022-09-22T06:25:33.202Z,9.34
2022-09-22T06:28:08.049Z,9.35
2022-09-22T06:30:38.052Z,9.36
2022-09-22T06:33:04.949Z,9.39
2022-09-22T06:35:37.449Z,9.41
2022-09-22T06:38:09.825Z,9.45
2022-09-22T06:40:36.836Z,9.51
2022-09-22T06:43:09.964Z,9.58
2022-09-22T06:45:36.991Z,9.63
2022-09-22T06:48:08.973Z,9.69
2022-09-22T06:50:37.579Z,9.75
2022-09-22T06:53:07.328Z,9.82
2022-09-22T06:55:35.926Z,9.89
2022-09-22T06:58:03.148Z,9.97
2022-09-22T07:00:32.782Z,10.05
2022-09-22T07:03:20.737Z,10.14
2022-09-22T07:06:00.898Z,10.24
2022-09-22T07:08:30.752Z,10.31
2022-09-22T07:11:01.798Z,10.39
2022-09-22T07:13:30.974Z,10.48
2022-09-22T07:16:05.696Z,10.55
2022-09-22T07:18:32.707Z,10.63
2022-09-22T07:21:08.642Z,10.72
2022-09-22T07:23:36.497Z,10.80
2022-09-22T07:26:10.217Z,10.88
2022-09-22T07:28:37.719Z,10.95
2022-09-22T07:31:10.869Z,11.04
2022-09-22T07:33:40.251Z,11.11
2022-09-22T07:36:12.937Z,11.20
2022-09-22T07:38:42.164Z,11.28
2022-09-22T07:41:14.905Z,11.37
2022-09-22T07:43:42.406Z,11.48
2022-09-22T07:46:09.567Z,11.55
2022-09-22T07:48:37.730Z,11.65
2022-09-22T07:51:12.866Z,11.73
2022-09-22T07:53:42.713Z,11.84
2022-09-22T07:56:13.375Z,11.90
2022-09-22T07:58:52.267Z,11.98
2022-09-22T08:01:22.423Z,12.05
2022-09-22T08:03:50.715Z,12.13
2022-09-22T08:06:20.212Z,12.19
2022-09-22T08:08:53.623Z,12.26
2022-09-22T08:11:24.260Z,12.36
2022-09-22T08:13:56.034Z,12.45
2022-09-22T08:16:28.788Z,12.52
2022-09-22T08:18:57.850Z,12.61
2022-09-22T08:21:26.676Z,12.70
2022-09-22T08:23:54.297Z,12.78
2022-09-22T08:26:21.994Z,12.88
2022-09-22T08:28:55.015Z,12.96
2022-09-22T08:31:24.436Z,13.05
2022-09-22T08:33:52.842Z,13.13
2022-09-22T08:36:20.681Z,13.23
2022-09-22T08:38:49.551Z,13.31
2022-09-22T08:41:21.814Z,13.40
2022-09-22T08:43:55.534Z,13.49
2022-09-22T08:46:29.404Z,13.60
2022-09-22T08:49:36.938Z,13.71
2022-09-22T08:52:38.754Z,13.84
2022-09-22T08:55:15.887Z,13.92
2022-09-22T08:57:59.226Z,14.02
2022-09-22T09:00:34.650Z,14.13
2022-09-22T09:03:36.242Z,14.23
2022-09-22T09:06:21.140Z,14.32
2022-09-22T09:09:25.560Z,14.45
2022-09-22T09:12:19.697Z,14.57
2022-09-22T09:15:29.088Z,14.69
2022-09-22T09:18:03.005Z,14.78
2022-09-22T09:20:44.897Z,14.88
2022-09-22T09:23:24.721Z,14.95
2022-09-22T09:25:55.582Z,15.00
2022-09-22T09:28:44.061Z,15.09
2022-09-22T09:31:36.476Z,15.16
2022-09-22T09:34:13.338Z,15.21
2022-09-22T09:36:45.478Z,15.27
2022-09-22T09:39:22.798Z,15.33
2022-09-22T09:41:50.898Z,15.41
2022-09-22T09:44:30.338Z,15.53
2022-09-22T09:47:19.398Z,15.63
2022-09-22T09:49:52.683Z,15.68
2022-09-22T09:52:20.926Z,15.74
2022-09-22T09:54:48.635Z,15.79
2022-09-22T09:57:18.364Z,15.83
2022-09-22T10:00:06.703Z,15.88
2022-09-22T10:02:50.485Z,15.97
2022-09-22T10:05:17.253Z,16.04
2022-09-22T10:07:48.590Z,16.12
2022-09-22T10:10:41.074Z,16.22
2022-09-22T10:13:07.869Z,16.28
2022-09-22T10:15:37.883Z,16.34
2022-09-22T10:18:34.308Z,16.47
2022-09-22T10:21:23.099Z,16.52
2022-09-22T10:23:56.472Z,16.59
2022-09-22T10:26:29.509Z,16.65
2022-09-22T10:29:19.881Z,16.73
2022-09-22T10:32:12.415Z,16.77
2022-09-22T10:34:50.497Z,16.76
2022-09-22T10:37:24.772Z,16.82
2022-09-22T10:39:55.953Z,16.88
2022-09-22T10:42:46.146Z,16.99
2022-09-22T10:45:16.546Z,17.03
2022-09-22T10:47:59.145Z,17.05
2022-09-22T10:51:07.052Z,17.09
2022-09-22T10:54:11.196Z,17.14
2022-09-22T10:56:46.043Z,17.15
2022-09-22T10:59:45.950Z,17.25
2022-09-22T11:03:02.450Z,17.35
2022-09-22T11:06:12.539Z,17.44
2022-09-22T11:09:29.303Z,17.61
2022-09-22T11:12:38.815Z,17.77
2022-09-22T11:15:33.400Z,17.87
2022-09-22T11:18:21.682Z,18.02
2022-09-22T11:20:59.661Z,18.14
2022-09-22T11:24:16.155Z,18.18
2022-09-22T11:26:57.033Z,18.24
2022-09-22T11:29:51.718Z,18.37
2022-09-22T11:32:30.840Z,18.48
2022-09-22T11:35:22.628Z,18.58
2022-09-22T11:38:24.726Z,18.69
2022-09-22T11:41:20.603Z,18.80
2022-09-22T11:44:36.758Z,18.94
2022-09-22T11:47:46.652Z,19.01
2022-09-22T11:50:46.111Z,19.04
2022-09-22T11:53:30.000Z,19.11
2022-09-22T11:56:29.350Z,19.18
2022-09-22T11:59:02.690Z,19.20
2022-09-22T12:01:37.203Z,19.25
2022-09-22T12:04:44.046Z,19.29
2022-09-22T12:07:27.656Z,19.24
2022-09-22T12:10:05.303Z,19.16
2022-09-22T12:12:33.506Z,19.15
2022-09-22T12:15:39.375Z,19.20
2022-09-22T12:18:14.828Z,19.20
2022-09-22T12:21:27.910Z,19.21
2022-09-22T12:23:57.081Z,19.16
2022-09-22T12:26:53.746Z,19.25
2022-09-22T12:29:27.566Z,19.20
2022-09-22T12:31:58.578Z,19.31
2022-09-22T12:34:39.409Z,19.40
2022-09-22T12:37:36.082Z,19.40
2022-09-22T12:40:23.413Z,19.39
2022-09-22T12:42:53.125Z,19.41
2022-09-22T12:45:33.055Z,19.39
2022-09-22T12:48:10.410Z,19.40
2022-09-22T12:50:41.163Z,19.29
2022-09-22T12:53:23.420Z,19.27
2022-09-22T12:56:00.248Z,19.31
2022-09-22T12:58:30.065Z,19.38
2022-09-22T13:01:32.448Z,19.42
2022-09-22T13:04:16.221Z,19.47
2022-09-22T13:06:43.020Z,19.45
2022-09-22T13:09:21.366Z,19.51
2022-09-22T13:12:10.598Z,19.51
2022-09-22T13:15:08.472Z,19.47
2022-09-22T13:17:49.929Z,19.46
2022-09-22T13:20:38.982Z,19.45
2022-09-22T13:23:11.911Z,19.45
2022-09-22T13:25:40.048Z,19.48
2022-09-22T13:28:18.296Z,19.54
2022-09-22T13:30:48.831Z,19.56
2022-09-22T13:33:20.057Z,19.62
2022-09-22T13:35:50.828Z,19.58
2022-09-22T13:38:17.832Z,19.67
2022-09-22T13:40:49.256Z,19.80
2022-09-22T13:43:29.145Z,19.88
2022-09-22T13:45:59.158Z,19.75
2022-09-22T13:48:35.416Z,19.67
2022-09-22T13:51:11.994Z,19.62
2022-09-22T13:53:42.828Z,19.51
2022-09-22T13:56:20.760Z,19.56
2022-09-22T13:58:51.021Z,19.49
2022-09-22T14:01:21.583Z,19.46
2022-09-22T14:03:49.755Z,19.52
2022-09-22T14:06:20.136Z,19.57
2022-09-22T14:08:50.075Z,19.61
2022-09-22T14:11:27.302Z,19.52
2022-09-22T14:13:54.576Z,19.54
2022-09-22T14:16:33.595Z,19.65
2022-09-22T14:19:04.255Z,19.69
2022-09-22T14:21:33.136Z,19.72
2022-09-22T14:24:01.379Z,19.63
2022-09-22T14:26:36.272Z,19.69
2022-09-22T14:29:26.945Z,19.66
2022-09-22T14:32:02.760Z,19.72
2022-09-22T14:34:32.817Z,19.66
2022-09-22T14:37:16.744Z,19.73
2022-09-22T14:39:44.995Z,19.67
2022-09-22T14:42:27.398Z,19.75
2022-09-22T14:45:08.452Z,19.75
2022-09-22T14:52:32.814Z,19.66
2022-09-22T14:55:16.985Z,19.66
2022-09-22T14:57:47.948Z,19.58
2022-09-22T15:00:35.263Z,19.53
2022-09-22T15:03:24.023Z,19.56
2022-09-22T15:05:51.379Z,19.55
2022-09-22T15:08:28.802Z,19.66
2022-09-22T15:10:59.284Z,19.67
2022-09-22T15:13:42.043Z,19.75
2022-09-22T15:16:33.778Z,19.75
2022-09-22T15:19:01.190Z,19.77
2022-09-22T15:21:29.311Z,19.81
2022-09-22T15:23:59.835Z,19.86
2022-09-22T15:26:28.815Z,19.93
2022-09-22T15:29:01.677Z,19.82
2022-09-22T15:31:29.692Z,19.71
2022-09-22T15:34:01.217Z,19.70
2022-09-22T15:36:32.742Z,19.67
2022-09-22T15:39:19.261Z,19.68
2022-09-22T15:41:48.104Z,19.62
2022-09-22T15:44:16.477Z,19.56
2022-09-22T15:46:48.769Z,19.48
2022-09-22T15:49:22.453Z,19.44
2022-09-22T15:51:50.256Z,19.41
2022-09-22T15:54:20.922Z,19.34
2022-09-22T15:56:49.798Z,19.22
2022-09-22T15:59:32.187Z,19.14
2022-09-22T16:02:00.483Z,19.11
2022-09-22T16:04:32.902Z,19.10
2022-09-22T16:07:08.224Z,19.06
2022-09-22T16:09:35.922Z,18.99
2022-09-22T16:12:03.293Z,18.93
2022-09-22T16:14:30.349Z,18.88
2022-09-22T16:16:57.292Z,18.84
2022-09-22T16:19:24.227Z,18.79
2022-09-22T16:21:54.133Z,18.75
2022-09-22T16:24:22.399Z,18.72
2022-09-22T16:26:50.144Z,18.66
2022-09-22T16:29:17.081Z,18.64
2022-09-22T16:31:44.089Z,18.59
2022-09-22T16:34:11.755Z,18.54
2022-09-22T16:36:41.559Z,18.47
2022-09-22T16:39:08.855Z,18.46
2022-09-22T16:41:37.155Z,18.41
2022-09-22T16:44:05.223Z,18.34
2022-09-22T16:46:35.842Z,18.26
2022-09-22T16:49:10.290Z,18.24
2022-09-22T16:51:40.967Z,18.16
2022-09-22T16:54:14.161Z,18.10
2022-09-22T16:56:47.793Z,18.03
2022-09-22T16:59:21.087Z,17.94
2022-09-22T17:01:48.958Z,17.86
2022-09-22T17:04:19.307Z,17.79
2022-09-22T17:06:48.748Z,17.73
2022-09-22T17:09:16.683Z,17.67
2022-09-22T17:11:46.271Z,17.60
2022-09-22T17:14:21.501Z,17.53
2022-09-22T17:16:52.053Z,17.46
2022-09-22T17:19:27.686Z,17.39
2022-09-22T17:21:56.316Z,17.29
2022-09-22T17:24:25.569Z,17.19
2022-09-22T17:26:58.548Z,17.07
2022-09-22T17:29:32.474Z,16.96
2022-09-22T17:32:05.713Z,16.84
2022-09-22T17:34:34.824Z,16.72
2022-09-22T17:37:02.985Z,16.60
2022-09-22T17:39:32.061Z,16.50
2022-09-22T17:41:59.206Z,16.42
2022-09-22T17:44:28.716Z,16.32
2022-09-22T17:47:14.608Z,16.23
2022-09-22T17:49:59.979Z,16.11
2022-09-22T17:52:33.081Z,16.00
2022-09-22T17:55:09.473Z,15.91
2022-09-22T17:57:42.698Z,15.81
2022-09-22T18:00:21.070Z,15.72
2022-09-22T18:02:50.454Z,15.64
2022-09-22T18:05:25.336Z,15.57
2022-09-22T18:07:57.476Z,15.50
2022-09-22T18:10:32.328Z,15.44
2022-09-22T18:13:01.570Z,15.37
2022-09-22T18:15:29.073Z,15.30
2022-09-22T18:17:57.977Z,15.24
2022-09-22T18:20:27.311Z,15.19
2022-09-22T18:22:55.179Z,15.15
2022-09-22T18:25:25.569Z,15.10
2022-09-22T18:27:53.474Z,15.05
2022-09-22T18:30:20.558Z,15.01
2022-09-22T18:32:48.808Z,14.96
2022-09-22T18:35:16.098Z,14.91
2022-09-22T18:37:43.142Z,14.88
2022-09-22T18:40:12.266Z,14.83
2022-09-22T18:42:39.659Z,14.80
2022-09-22T18:45:07.388Z,14.75
2022-09-22T18:47:40.750Z,14.70
2022-09-22T18:50:08.749Z,14.67
2022-09-22T18:52:37.135Z,14.62
2022-09-22T18:55:04.865Z,14.58
2022-09-22T18:57:31.807Z,14.55
2022-09-22T19:00:00.173Z,14.51
2022-09-22T19:02:27.373Z,14.47
2022-09-22T19:04:54.578Z,14.44
2022-09-22T19:07:44.211Z,14.41
2022-09-22T19:10:22.318Z,14.35
2022-09-22T19:12:49.568Z,14.31
2022-09-22T19:15:18.817Z,14.27
2022-09-22T19:17:49.283Z,14.24
2022-09-22T19:20:23.702Z,14.19
2022-09-22T19:22:52.167Z,14.15
2022-09-22T19:25:21.361Z,14.13
2022-09-22T19:27:49.606Z,14.10
2022-09-22T19:30:20.515Z,14.08
2022-09-22T19:32:50.376Z,14.04
2022-09-22T19:35:17.410Z,14.00
2022-09-22T19:37:44.425Z,13.97
2022-09-22T19:40:18.708Z,13.95
2022-09-22T19:42:47.017Z,13.93
2022-09-22T19:45:14.573Z,13.91
2022-09-22T19:47:41.940Z,13.87
2022-09-22T19:50:09.599Z,13.84
2022-09-22T19:52:38.080Z,13.81
2022-09-22T19:55:11.336Z,13.76
2022-09-22T19:57:41.545Z,13.74
2022-09-22T20:00:17.911Z,13.71
2022-09-22T20:02:45.388Z,13.68
2022-09-22T20:05:22.174Z,13.65
2022-09-22T20:07:49.869Z,13.65
2022-09-22T20:10:19.211Z,13.62
2022-09-22T20:12:46.356Z,13.60
2022-09-22T20:15:15.066Z,13.58
2022-09-22T20:17:46.079Z,13.56
2022-09-22T20:20:19.823Z,13.52
2022-09-22T20:22:48.358Z,13.48
2022-09-22T20:25:28.982Z,13.45
2022-09-22T20:27:56.154Z,13.43
2022-09-22T20:30:23.174Z,13.40
2022-09-22T20:32:51.029Z,13.39
2022-09-22T20:35:21.623Z,13.38
2022-09-22T20:37:48.657Z,13.35
2022-09-22T20:40:21.322Z,13.34
2022-09-22T20:42:53.082Z,13.34
2022-09-22T20:45:25.124Z,13.31
2022-09-22T20:47:52.333Z,13.30
2022-09-22T20:50:21.252Z,13.28
2022-09-22T20:52:48.293Z,13.26
2022-09-22T20:55:15.475Z,13.24
2022-09-22T20:57:42.639Z,13.22
2022-09-22T21:00:10.398Z,13.21
2022-09-22T21:02:37.429Z,13.21
2022-09-22T21:05:04.750Z,13.21
2022-09-22T21:07:32.804Z,13.21
2022-09-22T21:10:18.129Z,13.22
2022-09-22T21:12:45.326Z,13.21
2022-09-22T21:15:12.431Z,13.19
2022-09-22T21:17:43.281Z,13.17
2022-09-22T21:20:10.990Z,13.16
2022-09-22T21:22:37.922Z,13.14
2022-09-22T21:25:05.408Z,13.12
2022-09-22T21:27:32.338Z,13.10
2022-09-22T21:29:59.256Z,13.07
2022-09-22T21:32:26.271Z,13.06
2022-09-22T21:34:53.251Z,13.04
2022-09-22T21:37:20.948Z,13.02
2022-09-22T21:39:47.915Z,13.01
2022-09-22T21:42:15.681Z,12.98
2022-09-22T21:44:42.689Z,12.98
2022-09-22T21:47:11.124Z,12.96
2022-09-22T21:49:38.425Z,12.93
2022-09-22T21:52:05.485Z,12.92
2022-09-22T21:54:32.407Z,12.93
2022-09-22T21:56:59.371Z,12.90
2022-09-22T21:59:26.301Z,12.90
2022-09-22T22:01:53.257Z,12.89
2022-09-22T22:04:20.222Z,12.86
2022-09-22T22:06:47.330Z,12.85
2022-09-22T22:09:17.541Z,12.83
2022-09-22T22:11:49.990Z,12.80
2022-09-22T22:14:20.393Z,12.77
2022-09-22T22:16:53.288Z,12.75
2022-09-22T22:19:24.708Z,12.74
2022-09-22T22:21:51.961Z,12.71
2022-09-22T22:24:28.230Z,12.69
2022-09-22T22:27:09.633Z,12.65
2022-09-22T22:29:38.671Z,12.63
2022-09-22T22:32:09.015Z,12.61
2022-09-22T22:34:36.334Z,12.62
2022-09-22T22:37:06.898Z,12.59
2022-09-22T22:39:33.822Z,12.57
2022-09-22T22:42:00.734Z,12.55
2022-09-22T22:44:27.888Z,12.54
2022-09-22T22:46:54.902Z,12.53
2022-09-22T22:49:21.872Z,12.51
2022-09-22T22:51:49.765Z,12.50
2022-09-22T22:54:16.704Z,12.49
2022-09-22T22:56:45.848Z,12.48
2022-09-22T22:59:15.973Z,12.47
2022-09-22T23:01:44.138Z,12.44
2022-09-22T23:04:12.038Z,12.43
2022-09-22T23:06:43.698Z,12.41
2022-09-22T23:09:15.525Z,12.39
2022-09-22T23:11:43.959Z,12.36
2022-09-22T23:14:12.935Z,12.36
2022-09-22T23:16:46.405Z,12.35
2022-09-22T23:19:16.837Z,12.33
2022-09-22T23:21:45.178Z,12.33
2022-09-22T23:24:18.743Z,12.31
2022-09-22T23:26:46.842Z,12.31
2022-09-22T23:29:13.988Z,12.30
2022-09-22T23:31:40.998Z,12.30
2022-09-22T23:34:07.973Z,12.28
2022-09-22T23:36:34.960Z,12.28
2022-09-22T23:39:03.749Z,12.27
2022-09-22T23:41:36.463Z,12.26
2022-09-22T23:44:08.329Z,12.24
2022-09-22T23:46:35.466Z,12.24
2022-09-22T23:49:02.636Z,12.23
2022-09-22T23:51:30.354Z,12.22
2022-09-22T23:53:58.443Z,12.22
2022-09-22T23:56:25.530Z,12.21
2022-09-22T23:58:52.885Z,12.22
